createdAt,value
2019-03-24T00:02:16.457Z,7.00
2019-03-24T00:04:45.726Z,7.00
2019-03-24T00:07:14.978Z,6.90
2019-03-24T00:09:44.256Z,6.80
2019-03-24T00:12:13.524Z,6.90
2019-03-24T00:14:42.822Z,6.90
2019-03-24T00:17:12.083Z,6.70
2019-03-24T00:19:41.349Z,6.70
2019-03-24T00:22:10.648Z,6.70
2019-03-24T00:24:39.880Z,6.70
2019-03-24T00:27:09.127Z,6.70
2019-03-24T00:29:38.453Z,6.70
2019-03-24T00:32:07.692Z,6.70
2019-03-24T00:34:36.955Z,6.60
2019-03-24T00:37:06.305Z,6.60
2019-03-24T00:39:35.547Z,6.60
2019-03-24T00:42:04.754Z,6.60
2019-03-24T00:44:34.047Z,6.60
2019-03-24T00:47:04.076Z,6.60
2019-03-24T00:49:36.153Z,6.60
2019-03-24T00:52:05.555Z,6.60
2019-03-24T00:54:36.025Z,6.60
2019-03-24T00:57:05.371Z,6.60
2019-03-24T00:59:38.996Z,6.60
2019-03-24T01:02:08.452Z,6.60
2019-03-24T01:04:38.452Z,6.60
2019-03-24T01:07:07.921Z,6.60
2019-03-24T01:09:37.226Z,6.60
2019-03-24T01:12:07.116Z,6.60
2019-03-24T01:14:36.461Z,6.70
2019-03-24T01:17:05.929Z,6.60
2019-03-24T01:19:35.359Z,6.50
2019-03-24T01:22:04.818Z,6.50
2019-03-24T01:24:34.104Z,6.50
2019-03-24T01:27:03.426Z,6.40
2019-03-24T01:29:32.694Z,6.40
2019-03-24T01:32:05.135Z,6.30
2019-03-24T01:34:37.571Z,6.40
2019-03-24T01:37:06.853Z,6.50
2019-03-24T01:39:36.122Z,6.50
2019-03-24T01:42:05.728Z,6.40
2019-03-24T01:44:34.992Z,6.40
2019-03-24T01:47:04.655Z,6.40
2019-03-24T01:49:34.073Z,6.40
2019-03-24T01:52:03.719Z,6.40
2019-03-24T01:54:35.089Z,6.40
2019-03-24T01:57:04.143Z,6.40
2019-03-24T01:59:34.994Z,6.40
2019-03-24T02:02:04.601Z,6.30
2019-03-24T02:04:34.003Z,6.20
2019-03-24T02:07:03.529Z,6.20
2019-03-24T02:09:32.780Z,6.20
2019-03-24T02:12:02.147Z,6.20
2019-03-24T02:14:31.454Z,6.10
2019-03-24T02:17:00.751Z,6.10
2019-03-24T02:19:30.207Z,6.10
2019-03-24T02:21:59.649Z,6.10
2019-03-24T02:24:29.027Z,6.00
2019-03-24T02:26:58.361Z,6.00
2019-03-24T02:29:27.712Z,6.00
2019-03-24T02:31:57.127Z,6.00
2019-03-24T02:34:26.592Z,5.90
2019-03-24T02:36:55.910Z,5.80
2019-03-24T02:39:25.315Z,5.80
2019-03-24T02:41:54.748Z,5.70
2019-03-24T02:44:24.154Z,5.70
2019-03-24T02:46:53.437Z,5.70
2019-03-24T02:49:22.914Z,5.60
2019-03-24T02:51:52.294Z,5.60
2019-03-24T02:54:21.589Z,5.60
2019-03-24T02:56:50.868Z,5.50
2019-03-24T02:59:20.272Z,5.50
2019-03-24T03:01:49.590Z,5.40
2019-03-24T03:04:19.074Z,5.40
2019-03-24T03:06:48.421Z,5.40
2019-03-24T03:09:17.678Z,5.40
2019-03-24T03:11:50.431Z,5.30
2019-03-24T03:14:19.840Z,5.30
2019-03-24T03:16:49.090Z,5.40
2019-03-24T03:19:18.593Z,5.30
2019-03-24T03:21:48.136Z,5.30
2019-03-24T03:24:17.498Z,5.20
2019-03-24T03:26:46.881Z,5.20
2019-03-24T03:29:16.326Z,5.20
2019-03-24T03:31:45.668Z,5.20
2019-03-24T03:34:15.104Z,5.20
2019-03-24T03:36:44.492Z,5.20
2019-03-24T03:39:13.937Z,5.20
2019-03-24T03:41:43.371Z,5.20
2019-03-24T03:44:12.812Z,5.10
2019-03-24T03:46:52.433Z,5.10
2019-03-24T03:49:13.890Z,5.10
2019-03-24T03:51:43.361Z,5.10
2019-03-24T03:54:12.772Z,5.00
2019-03-24T03:56:42.123Z,5.10
2019-03-24T03:59:11.735Z,5.00
2019-03-24T04:01:41.029Z,5.00
2019-03-24T04:04:10.438Z,4.90
2019-03-24T04:06:39.830Z,4.90
2019-03-24T04:09:09.217Z,4.90
2019-03-24T04:11:38.739Z,4.90
2019-03-24T04:14:08.060Z,4.90
2019-03-24T04:16:37.396Z,4.80
2019-03-24T04:19:06.891Z,4.80
2019-03-24T04:21:36.308Z,4.70
2019-03-24T04:24:05.745Z,4.70
2019-03-24T04:26:35.166Z,4.60
2019-03-24T04:29:04.469Z,4.70
2019-03-24T04:31:33.936Z,4.60
2019-03-24T04:34:03.308Z,4.60
2019-03-24T04:36:32.786Z,4.60
2019-03-24T04:39:02.050Z,4.70
2019-03-24T04:41:31.636Z,4.60
2019-03-24T04:44:01.191Z,4.60
2019-03-24T04:46:30.603Z,4.60
2019-03-24T04:48:59.910Z,4.60
2019-03-24T04:51:29.205Z,4.50
2019-03-24T04:53:58.487Z,4.50
2019-03-24T04:56:27.942Z,4.60
2019-03-24T04:58:57.247Z,4.50
2019-03-24T05:01:26.556Z,4.40
2019-03-24T05:03:55.867Z,4.40
2019-03-24T05:06:25.111Z,4.40
2019-03-24T05:08:54.481Z,4.40
2019-03-24T05:11:24.068Z,4.40
2019-03-24T05:13:53.467Z,4.30
2019-03-24T05:16:22.756Z,4.30
2019-03-24T05:18:52.014Z,4.30
2019-03-24T05:21:21.323Z,4.30
2019-03-24T05:23:50.575Z,4.30
2019-03-24T05:26:20.086Z,4.20
2019-03-24T05:28:49.380Z,4.20
2019-03-24T05:31:18.881Z,4.20
2019-03-24T05:33:48.179Z,4.30
2019-03-24T05:36:17.593Z,4.20
2019-03-24T05:38:46.978Z,4.20
2019-03-24T05:41:16.589Z,4.20
2019-03-24T05:43:45.843Z,4.10
2019-03-24T05:46:15.340Z,4.20
2019-03-24T05:48:44.779Z,4.10
2019-03-24T05:51:14.137Z,4.20
2019-03-24T05:53:43.380Z,4.20
2019-03-24T05:56:12.704Z,4.20
2019-03-24T05:58:41.979Z,4.10
2019-03-24T06:01:11.319Z,4.10
2019-03-24T06:03:43.977Z,4.20
2019-03-24T06:06:13.619Z,4.20
2019-03-24T06:08:42.882Z,4.20
2019-03-24T06:11:12.250Z,4.20
2019-03-24T06:13:41.689Z,4.10
2019-03-24T06:16:14.410Z,4.30
2019-03-24T06:18:43.794Z,4.30
2019-03-24T06:21:13.025Z,4.40
2019-03-24T06:23:43.479Z,4.40
2019-03-24T06:26:12.960Z,4.40
2019-03-24T06:28:42.528Z,4.50
2019-03-24T06:31:11.942Z,4.40
2019-03-24T06:33:41.669Z,4.40
2019-03-24T06:36:11.647Z,4.50
2019-03-24T06:38:41.215Z,4.50
2019-03-24T06:41:10.867Z,4.50
2019-03-24T06:43:40.478Z,4.50
2019-03-24T06:46:09.753Z,4.50
2019-03-24T06:48:39.057Z,4.60
2019-03-24T06:51:08.404Z,4.70
2019-03-24T06:53:37.725Z,4.70
2019-03-24T06:56:07.676Z,4.80
2019-03-24T06:58:37.030Z,4.80
2019-03-24T07:01:06.481Z,5.00
2019-03-24T07:03:35.998Z,5.00
2019-03-24T07:06:05.401Z,5.00
2019-03-24T07:08:34.907Z,5.00
2019-03-24T07:11:11.426Z,5.00
2019-03-24T07:13:35.459Z,5.10
2019-03-24T07:16:04.771Z,5.10
2019-03-24T07:18:34.112Z,5.00
2019-03-24T07:21:03.590Z,5.20
2019-03-24T07:23:32.929Z,5.20
2019-03-24T07:26:02.258Z,5.30
2019-03-24T07:28:31.548Z,5.40
2019-03-24T07:31:00.917Z,5.50
2019-03-24T07:33:30.299Z,5.60
2019-03-24T07:35:59.507Z,5.70
2019-03-24T07:38:28.800Z,5.80
2019-03-24T07:40:58.175Z,5.80
2019-03-24T07:43:27.487Z,6.00
2019-03-24T07:45:56.792Z,6.00
2019-03-24T07:48:26.117Z,6.10
2019-03-24T07:50:55.434Z,6.10
2019-03-24T07:53:24.739Z,6.00
2019-03-24T07:55:54.005Z,5.90
2019-03-24T07:58:23.611Z,5.90
2019-03-24T08:00:52.856Z,5.70
2019-03-24T08:03:22.326Z,5.80
2019-03-24T08:05:51.600Z,5.90
2019-03-24T08:08:20.933Z,5.90
2019-03-24T08:10:50.695Z,5.90
2019-03-24T08:13:19.947Z,5.90
2019-03-24T08:15:49.358Z,5.90
2019-03-24T08:18:29.268Z,6.00
2019-03-24T08:20:49.958Z,5.90
2019-03-24T08:23:19.466Z,5.90
2019-03-24T08:25:49.082Z,5.80
2019-03-24T08:28:18.353Z,5.70
2019-03-24T08:30:47.634Z,5.80
2019-03-24T08:33:17.060Z,5.90
2019-03-24T08:35:46.314Z,6.00
2019-03-24T08:38:15.595Z,6.20
2019-03-24T08:40:44.894Z,6.40
2019-03-24T08:43:14.386Z,6.50
2019-03-24T08:45:43.669Z,6.60
2019-03-24T08:48:12.888Z,6.70
2019-03-24T08:50:42.193Z,6.80
2019-03-24T08:53:11.629Z,6.90
2019-03-24T08:55:40.937Z,6.90
2019-03-24T08:58:10.255Z,6.90
2019-03-24T09:00:39.597Z,6.90
2019-03-24T09:03:08.880Z,7.10
2019-03-24T09:05:38.403Z,7.00
2019-03-24T09:08:07.758Z,7.10
2019-03-24T09:10:37.146Z,7.20
2019-03-24T09:13:06.429Z,7.30
2019-03-24T09:15:35.959Z,7.60
2019-03-24T09:18:05.360Z,7.60
2019-03-24T09:20:41.704Z,7.80
2019-03-24T09:23:05.660Z,7.80
2019-03-24T09:25:35.006Z,7.80
2019-03-24T09:28:04.602Z,8.00
2019-03-24T09:30:38.672Z,7.90
2019-03-24T09:33:07.994Z,8.00
2019-03-24T09:35:37.333Z,8.00
2019-03-24T09:38:08.409Z,7.80
2019-03-24T09:40:37.964Z,8.00
2019-03-24T09:43:09.676Z,8.10
2019-03-24T09:45:39.112Z,8.20
2019-03-24T09:48:08.387Z,8.40
2019-03-24T09:50:37.932Z,8.40
2019-03-24T09:53:11.851Z,8.40
2019-03-24T09:55:41.278Z,8.60
2019-03-24T09:58:10.557Z,8.60
2019-03-24T10:00:39.779Z,8.60
2019-03-24T10:03:13.662Z,8.60
2019-03-24T10:05:43.115Z,8.40
2019-03-24T10:08:12.531Z,8.30
2019-03-24T10:10:41.868Z,8.30
2019-03-24T10:13:11.178Z,8.70
2019-03-24T10:15:40.550Z,8.70
2019-03-24T10:18:12.114Z,8.70
2019-03-24T10:20:44.165Z,9.00
2019-03-24T10:23:13.609Z,9.30
2019-03-24T10:25:42.902Z,9.40
2019-03-24T10:28:12.211Z,9.40
2019-03-24T10:30:41.741Z,9.50
2019-03-24T10:33:11.047Z,9.60
2019-03-24T10:35:40.391Z,9.90
2019-03-24T10:38:09.762Z,10.10
2019-03-24T10:40:39.090Z,10.40
2019-03-24T10:43:08.370Z,10.40
2019-03-24T10:45:37.659Z,10.60
2019-03-24T10:48:07.032Z,10.80
2019-03-24T10:50:36.530Z,11.10
2019-03-24T10:53:05.893Z,10.60
2019-03-24T10:55:35.309Z,10.60
2019-03-24T10:58:04.795Z,10.60
2019-03-24T11:00:43.989Z,10.80
2019-03-24T11:03:13.334Z,10.70
2019-03-24T11:05:42.682Z,10.70
2019-03-24T11:08:12.498Z,11.00
2019-03-24T11:10:46.743Z,11.00
2019-03-24T11:13:16.103Z,10.90
2019-03-24T11:15:45.611Z,10.80
2019-03-24T11:18:16.359Z,10.80
2019-03-24T11:20:45.715Z,10.90
2019-03-24T11:23:15.059Z,10.60
2019-03-24T11:25:44.452Z,10.70
2019-03-24T11:28:14.862Z,10.70
2019-03-24T11:30:44.179Z,10.50
2019-03-24T11:33:13.397Z,10.60
2019-03-24T11:35:42.781Z,10.40
2019-03-24T11:38:12.175Z,10.40
2019-03-24T11:40:41.502Z,10.40
2019-03-24T11:43:10.773Z,10.40
2019-03-24T11:45:40.189Z,10.50
2019-03-24T11:48:09.581Z,10.30
2019-03-24T11:50:38.848Z,10.60
2019-03-24T11:53:08.306Z,10.20
2019-03-24T11:55:37.858Z,10.30
2019-03-24T11:58:07.317Z,10.40
2019-03-24T12:00:38.358Z,10.70
2019-03-24T12:03:07.813Z,10.90
2019-03-24T12:05:37.258Z,10.80
2019-03-24T12:08:06.692Z,10.90
2019-03-24T12:10:35.991Z,10.90
2019-03-24T12:13:05.762Z,10.80
2019-03-24T12:15:35.247Z,10.60
2019-03-24T12:18:04.578Z,10.70
2019-03-24T12:20:33.846Z,10.60
2019-03-24T12:23:03.269Z,10.30
2019-03-24T12:25:32.798Z,10.40
2019-03-24T12:28:02.459Z,10.50
2019-03-24T12:30:32.134Z,10.30
2019-03-24T12:33:01.563Z,10.30
2019-03-24T12:35:31.105Z,10.20
2019-03-24T12:38:00.391Z,10.10
2019-03-24T12:40:29.816Z,10.10
2019-03-24T12:42:59.444Z,10.00
2019-03-24T12:45:28.850Z,10.00
2019-03-24T12:47:58.138Z,9.80
2019-03-24T12:50:31.605Z,9.90
2019-03-24T12:52:58.529Z,10.00
2019-03-24T12:55:27.901Z,9.90
2019-03-24T12:57:57.255Z,9.90
2019-03-24T13:00:37.166Z,10.00
2019-03-24T13:03:06.839Z,10.10
2019-03-24T13:05:36.247Z,10.10
2019-03-24T13:08:15.899Z,10.10
2019-03-24T13:10:45.177Z,10.30
2019-03-24T13:13:14.673Z,10.40
2019-03-24T13:15:44.001Z,10.40
2019-03-24T13:18:13.333Z,10.20
2019-03-24T13:20:42.697Z,10.30
2019-03-24T13:23:11.973Z,10.80
2019-03-24T13:25:41.303Z,10.80
2019-03-24T13:28:10.716Z,10.50
2019-03-24T13:30:40.065Z,10.70
2019-03-24T13:33:09.467Z,10.80
2019-03-24T13:35:38.789Z,10.80
2019-03-24T13:38:08.128Z,10.70
2019-03-24T13:40:37.399Z,10.70
2019-03-24T13:43:06.645Z,11.10
2019-03-24T13:45:35.945Z,11.30
2019-03-24T13:48:05.234Z,11.60
2019-03-24T13:50:34.489Z,11.80
2019-03-24T13:53:03.734Z,11.70
2019-03-24T13:55:33.037Z,11.50
2019-03-24T13:58:02.913Z,11.40
2019-03-24T14:00:32.239Z,11.40
2019-03-24T14:03:01.599Z,11.20
2019-03-24T14:05:31.070Z,11.20
2019-03-24T14:08:00.391Z,11.10
2019-03-24T14:10:29.874Z,11.20
2019-03-24T14:12:59.397Z,10.90
2019-03-24T14:15:28.920Z,11.00
2019-03-24T14:17:58.219Z,11.10
2019-03-24T14:20:27.596Z,11.10
2019-03-24T14:22:56.915Z,11.10
2019-03-24T14:25:26.188Z,11.10
2019-03-24T14:27:55.454Z,11.50
2019-03-24T14:30:41.106Z,11.30
2019-03-24T14:33:10.450Z,11.50
2019-03-24T14:35:39.737Z,11.60
2019-03-24T14:38:09.034Z,11.50
2019-03-24T14:40:38.345Z,11.40
2019-03-24T14:43:07.614Z,11.40
2019-03-24T14:45:36.915Z,11.30
2019-03-24T14:48:06.198Z,11.10
2019-03-24T14:50:35.461Z,11.50
2019-03-24T14:53:04.735Z,11.30
2019-03-24T14:55:39.571Z,11.40
2019-03-24T14:58:09.400Z,11.30
2019-03-24T15:00:40.396Z,11.30
2019-03-24T15:03:09.821Z,11.10
2019-03-24T15:05:39.071Z,11.30
2019-03-24T15:08:08.458Z,11.30
2019-03-24T15:10:37.781Z,11.10
2019-03-24T15:13:07.165Z,11.40
2019-03-24T15:15:36.666Z,11.50
2019-03-24T15:18:06.057Z,11.70
2019-03-24T15:20:35.410Z,11.50
2019-03-24T15:23:04.727Z,11.30
2019-03-24T15:25:34.339Z,11.30
2019-03-24T15:28:03.575Z,11.30
2019-03-24T15:30:32.959Z,11.50
2019-03-24T15:33:02.357Z,11.60
2019-03-24T15:35:31.867Z,11.70
2019-03-24T15:38:08.006Z,11.30
2019-03-24T15:40:32.171Z,11.40
2019-03-24T15:43:01.427Z,11.50
2019-03-24T15:45:30.706Z,11.60
2019-03-24T15:48:00.075Z,11.50
2019-03-24T15:50:29.516Z,11.70
2019-03-24T15:52:58.854Z,11.40
2019-03-24T15:55:28.099Z,11.40
2019-03-24T15:57:57.340Z,11.40
2019-03-24T16:00:54.619Z,11.40
2019-03-24T16:03:23.925Z,11.20
2019-03-24T16:05:53.218Z,11.40
2019-03-24T16:08:22.618Z,11.50
2019-03-24T16:10:51.914Z,11.30
2019-03-24T16:13:21.375Z,11.30
2019-03-24T16:15:50.621Z,11.60
2019-03-24T16:18:19.918Z,11.70
2019-03-24T16:20:49.224Z,11.70
2019-03-24T16:23:18.587Z,11.70
2019-03-24T16:25:47.939Z,11.60
2019-03-24T16:28:17.343Z,11.40
2019-03-24T16:30:47.255Z,11.50
2019-03-24T16:33:16.562Z,11.40
2019-03-24T16:35:45.846Z,11.10
2019-03-24T16:38:15.210Z,10.90
2019-03-24T16:40:44.657Z,10.70
2019-03-24T16:43:13.916Z,10.80
2019-03-24T16:45:43.165Z,10.90
2019-03-24T16:48:12.491Z,10.90
2019-03-24T16:50:41.738Z,11.00
2019-03-24T16:53:11.099Z,11.00
2019-03-24T16:55:40.413Z,10.80
2019-03-24T16:58:09.749Z,10.90
2019-03-24T17:00:39.095Z,10.90
2019-03-24T17:03:08.367Z,10.90
2019-03-24T17:05:37.665Z,10.80
2019-03-24T17:08:07.008Z,10.80
2019-03-24T17:10:36.708Z,10.60
2019-03-24T17:13:06.100Z,10.80
2019-03-24T17:15:35.444Z,10.80
2019-03-24T17:18:05.051Z,10.90
2019-03-24T17:20:34.292Z,10.70
2019-03-24T17:23:03.583Z,10.60
2019-03-24T17:25:32.862Z,10.40
2019-03-24T17:28:02.194Z,10.50
2019-03-24T17:30:31.727Z,10.40
2019-03-24T17:33:01.046Z,10.40
2019-03-24T17:35:30.387Z,10.30
2019-03-24T17:37:59.757Z,10.30
2019-03-24T17:40:29.112Z,10.20
2019-03-24T17:42:58.355Z,10.10
2019-03-24T17:45:30.298Z,10.10
2019-03-24T17:47:59.636Z,9.80
2019-03-24T17:50:29.176Z,9.70
2019-03-24T17:52:58.506Z,9.70
2019-03-24T17:55:29.963Z,9.60
2019-03-24T17:57:58.990Z,9.60
2019-03-24T18:00:39.071Z,9.50
2019-03-24T18:03:08.365Z,9.50
2019-03-24T18:05:37.635Z,9.50
2019-03-24T18:08:07.239Z,9.40
2019-03-24T18:10:36.691Z,9.30
2019-03-24T18:13:06.246Z,9.30
2019-03-24T18:15:36.009Z,9.30
2019-03-24T18:18:05.347Z,9.20
2019-03-24T18:20:34.829Z,9.10
2019-03-24T18:23:04.196Z,9.10
2019-03-24T18:25:33.552Z,9.00
2019-03-24T18:28:02.957Z,9.00
2019-03-24T18:30:32.277Z,8.90
2019-03-24T18:33:01.678Z,8.90
2019-03-24T18:35:31.031Z,8.80
2019-03-24T18:38:00.409Z,8.80
2019-03-24T18:40:29.681Z,8.80
2019-03-24T18:42:59.170Z,8.70
2019-03-24T18:45:28.707Z,8.70
2019-03-24T18:48:09.340Z,8.70
2019-03-24T18:50:34.360Z,8.60
2019-03-24T18:53:04.664Z,8.60
2019-03-24T18:55:34.856Z,8.50
2019-03-24T18:58:05.558Z,8.50
2019-03-24T19:00:35.499Z,8.40
2019-03-24T19:03:05.141Z,8.40
2019-03-24T19:05:35.310Z,8.40
2019-03-24T19:08:05.302Z,8.40
2019-03-24T19:10:34.906Z,8.30
2019-03-24T19:13:04.871Z,8.30
2019-03-24T19:15:34.430Z,8.30
2019-03-24T19:18:04.424Z,8.30
2019-03-24T19:20:34.039Z,8.20
2019-03-24T19:23:03.479Z,8.20
2019-03-24T19:25:32.863Z,8.20
2019-03-24T19:28:02.345Z,8.20
2019-03-24T19:30:36.714Z,8.20
2019-03-24T19:33:06.581Z,8.20
2019-03-24T19:35:36.136Z,8.20
2019-03-24T19:38:05.924Z,8.10
2019-03-24T19:40:35.609Z,8.10
2019-03-24T19:43:05.317Z,8.10
2019-03-24T19:45:35.139Z,8.10
2019-03-24T19:48:05.176Z,8.10
2019-03-24T19:50:35.123Z,8.10
2019-03-24T19:53:04.740Z,8.10
2019-03-24T19:55:34.650Z,8.00
2019-03-24T19:58:04.596Z,7.90
2019-03-24T20:00:34.479Z,7.80
2019-03-24T20:03:06.962Z,7.90
2019-03-24T20:05:37.546Z,7.80
2019-03-24T20:08:07.626Z,7.80
2019-03-24T20:10:37.506Z,7.70
2019-03-24T20:13:07.510Z,7.60
2019-03-24T20:15:37.203Z,7.60
2019-03-24T20:18:07.078Z,7.60
2019-03-24T20:20:36.886Z,7.60
2019-03-24T20:23:07.074Z,7.50
2019-03-24T20:25:39.502Z,7.50
2019-03-24T20:28:09.297Z,7.50
2019-03-24T20:30:39.521Z,7.40
2019-03-24T20:33:09.575Z,7.40
2019-03-24T20:35:39.123Z,7.40
2019-03-24T20:38:08.630Z,7.40
2019-03-24T20:40:38.112Z,7.30
2019-03-24T20:43:07.564Z,7.30
2019-03-24T20:45:37.026Z,7.30
2019-03-24T20:48:06.543Z,7.30
2019-03-24T20:50:35.962Z,7.20
2019-03-24T20:53:17.311Z,7.30
2019-03-24T20:55:36.765Z,7.20
2019-03-24T20:58:06.520Z,7.10
2019-03-24T21:00:36.858Z,7.10
2019-03-24T21:03:07.133Z,7.00
2019-03-24T21:05:36.830Z,7.00
2019-03-24T21:08:06.582Z,7.00
2019-03-24T21:10:38.200Z,6.90
2019-03-24T21:13:07.863Z,6.90
2019-03-24T21:15:39.195Z,6.90
2019-03-24T21:18:08.713Z,6.80
2019-03-24T21:20:38.288Z,6.80
2019-03-24T21:23:07.994Z,6.70
2019-03-24T21:25:38.054Z,6.60
2019-03-24T21:28:07.639Z,6.60
2019-03-24T21:30:38.799Z,6.60
2019-03-24T21:33:08.679Z,6.60
2019-03-24T21:35:40.244Z,6.50
2019-03-24T21:38:09.706Z,6.50
2019-03-24T21:40:39.205Z,6.50
2019-03-24T21:43:09.014Z,6.40
2019-03-24T21:45:38.598Z,6.40
2019-03-24T21:48:08.136Z,6.30
2019-03-24T21:50:37.831Z,6.30
2019-03-24T21:53:07.698Z,6.20
2019-03-24T21:55:37.275Z,6.20
2019-03-24T21:58:06.839Z,6.20
2019-03-24T22:00:36.819Z,6.20
2019-03-24T22:03:06.962Z,6.10
2019-03-24T22:05:36.572Z,6.10
2019-03-24T22:08:06.382Z,6.10
2019-03-24T22:10:36.564Z,6.00
2019-03-24T22:13:06.328Z,6.00
2019-03-24T22:15:35.844Z,6.00
2019-03-24T22:18:05.689Z,6.00
2019-03-24T22:20:36.183Z,5.90
2019-03-24T22:23:05.715Z,5.90
2019-03-24T22:25:35.577Z,5.90
2019-03-24T22:28:05.310Z,5.90
2019-03-24T22:30:34.910Z,5.90
2019-03-24T22:33:04.540Z,5.90
2019-03-24T22:35:34.094Z,5.80
2019-03-24T22:38:03.620Z,5.80
2019-03-24T22:40:33.284Z,5.80
2019-03-24T22:43:03.058Z,5.80
2019-03-24T22:45:32.990Z,5.70
2019-03-24T22:48:02.628Z,5.70
2019-03-24T22:50:31.959Z,5.70
2019-03-24T22:53:01.321Z,5.60
2019-03-24T22:55:30.776Z,5.60
2019-03-24T22:58:00.224Z,5.50
2019-03-24T23:00:51.708Z,5.50
2019-03-24T23:03:21.492Z,5.50
2019-03-24T23:05:50.847Z,5.50
2019-03-24T23:08:20.399Z,5.40
2019-03-24T23:10:49.797Z,5.40
2019-03-24T23:13:19.102Z,5.40
2019-03-24T23:15:48.614Z,5.30
2019-03-24T23:18:17.923Z,5.30
2019-03-24T23:20:47.259Z,5.30
2019-03-24T23:23:16.649Z,5.30
2019-03-24T23:25:45.986Z,5.20
2019-03-24T23:28:15.286Z,5.30
2019-03-24T23:30:44.622Z,5.30
2019-03-24T23:33:13.904Z,5.20
2019-03-24T23:35:43.327Z,5.30
2019-03-24T23:38:12.705Z,5.40
2019-03-24T23:40:41.970Z,5.40
2019-03-24T23:43:11.252Z,5.40
2019-03-24T23:45:40.582Z,5.40
2019-03-24T23:48:09.852Z,5.50
2019-03-24T23:50:39.165Z,5.40
2019-03-24T23:53:08.475Z,5.40
2019-03-24T23:55:37.926Z,5.40
2019-03-24T23:58:07.147Z,5.40
